sensor_id;sensor_type;location;lat;lon;timestamp;temperature;humidity
35445;DHT22;21562;49.476;6.086;2023-04-25T00:01:11;9.10;99.90
35445;DHT22;21562;49.476;6.086;2023-04-25T00:03:38;9.20;99.90
35445;DHT22;21562;49.476;6.086;2023-04-25T00:06:05;9.20;99.90
35445;DHT22;21562;49.476;6.086;2023-04-25T00:08:32;9.60;99.90
35445;DHT22;21562;49.476;6.086;2023-04-25T00:10:58;9.90;99.90
35445;DHT22;21562;49.476;6.086;2023-04-25T00:13:24;10.00;99.90
35445;DHT22;21562;49.476;6.086;2023-04-25T00:15:51;10.00;99.90
35445;DHT22;21562;49.476;6.086;2023-04-25T00:18:19;10.00;99.90
35445;DHT22;21562;49.476;6.086;2023-04-25T00:20:45;10.00;99.90
35445;DHT22;21562;49.476;6.086;2023-04-25T00:23:13;10.00;99.90
35445;DHT22;21562;49.476;6.086;2023-04-25T00:25:44;10.20;99.90
35445;DHT22;21562;49.476;6.086;2023-04-25T00:28:11;10.40;99.90
35445;DHT22;21562;49.476;6.086;2023-04-25T00:30:36;10.70;99.90
35445;DHT22;21562;49.476;6.086;2023-04-25T00:33:02;10.90;99.90
35445;DHT22;21562;49.476;6.086;2023-04-25T00:35:28;11.10;99.90
35445;DHT22;21562;49.476;6.086;2023-04-25T00:37:54;11.30;99.90
35445;DHT22;21562;49.476;6.086;2023-04-25T00:40:20;11.40;99.90
35445;DHT22;21562;49.476;6.086;2023-04-25T00:42:47;11.50;99.90
35445;DHT22;21562;49.476;6.086;2023-04-25T00:45:14;11.50;99.90
35445;DHT22;21562;49.476;6.086;2023-04-25T00:47:42;11.50;99.90
35445;DHT22;21562;49.476;6.086;2023-04-25T00:50:09;11.60;99.90
35445;DHT22;21562;49.476;6.086;2023-04-25T00:52:35;11.60;99.90
35445;DHT22;21562;49.476;6.086;2023-04-25T00:55:01;11.70;99.90
35445;DHT22;21562;49.476;6.086;2023-04-25T00:57:27;11.70;99.90
35445;DHT22;21562;49.476;6.086;2023-04-25T00:59:54;11.70;99.90
35445;DHT22;21562;49.476;6.086;2023-04-25T01:02:20;11.70;99.90
35445;DHT22;21562;49.476;6.086;2023-04-25T01:04:46;11.70;99.90
35445;DHT22;21562;49.476;6.086;2023-04-25T01:07:13;11.70;99.90
35445;DHT22;21562;49.476;6.086;2023-04-25T01:09:39;11.40;99.90
35445;DHT22;21562;49.476;6.086;2023-04-25T01:12:05;11.60;99.90
35445;DHT22;21562;49.476;6.086;2023-04-25T01:14:31;11.70;99.90
35445;DHT22;21562;49.476;6.086;2023-04-25T01:16:57;11.80;99.90
35445;DHT22;21562;49.476;6.086;2023-04-25T01:19:23;11.90;99.90
35445;DHT22;21562;49.476;6.086;2023-04-25T01:21:50;11.90;99.90
35445;DHT22;21562;49.476;6.086;2023-04-25T01:24:15;12.00;99.90
35445;DHT22;21562;49.476;6.086;2023-04-25T01:26:42;11.60;99.90
35445;DHT22;21562;49.476;6.086;2023-04-25T01:29:16;11.10;99.90
35445;DHT22;21562;49.476;6.086;2023-04-25T01:31:43;10.80;99.90
35445;DHT22;21562;49.476;6.086;2023-04-25T01:34:09;10.50;99.90
35445;DHT22;21562;49.476;6.086;2023-04-25T01:36:35;10.80;99.90
35445;DHT22;21562;49.476;6.086;2023-04-25T01:39:01;10.90;99.90
35445;DHT22;21562;49.476;6.086;2023-04-25T01:41:27;10.90;99.90
35445;DHT22;21562;49.476;6.086;2023-04-25T01:43:53;10.90;99.90
35445;DHT22;21562;49.476;6.086;2023-04-25T01:46:18;11.00;99.90
35445;DHT22;21562;49.476;6.086;2023-04-25T01:48:44;11.20;99.90
35445;DHT22;21562;49.476;6.086;2023-04-25T01:51:10;11.40;99.90
35445;DHT22;21562;49.476;6.086;2023-04-25T01:53:37;11.20;99.90
35445;DHT22;21562;49.476;6.086;2023-04-25T01:56:03;11.30;99.90
35445;DHT22;21562;49.476;6.086;2023-04-25T01:58:29;11.50;99.90
35445;DHT22;21562;49.476;6.086;2023-04-25T02:00:55;11.60;99.90
35445;DHT22;21562;49.476;6.086;2023-04-25T02:03:20;11.70;99.90
35445;DHT22;21562;49.476;6.086;2023-04-25T02:05:46;11.60;99.90
35445;DHT22;21562;49.476;6.086;2023-04-25T02:08:12;11.40;99.90
35445;DHT22;21562;49.476;6.086;2023-04-25T02:10:38;11.40;99.90
35445;DHT22;21562;49.476;6.086;2023-04-25T02:13:04;11.30;99.90
35445;DHT22;21562;49.476;6.086;2023-04-25T02:15:30;10.80;99.90
35445;DHT22;21562;49.476;6.086;2023-04-25T02:17:56;10.00;99.90
35445;DHT22;21562;49.476;6.086;2023-04-25T02:20:23;10.10;99.90
35445;DHT22;21562;49.476;6.086;2023-04-25T02:22:50;10.00;99.90
35445;DHT22;21562;49.476;6.086;2023-04-25T02:25:17;9.90;99.90
35445;DHT22;21562;49.476;6.086;2023-04-25T02:27:42;9.90;99.90
35445;DHT22;21562;49.476;6.086;2023-04-25T02:30:08;9.90;99.90
35445;DHT22;21562;49.476;6.086;2023-04-25T02:32:34;9.60;99.90
35445;DHT22;21562;49.476;6.086;2023-04-25T02:35:01;9.70;99.90
35445;DHT22;21562;49.476;6.086;2023-04-25T02:37:39;10.10;99.90
35445;DHT22;21562;49.476;6.086;2023-04-25T02:40:06;10.40;99.90
35445;DHT22;21562;49.476;6.086;2023-04-25T02:42:31;10.60;99.90
35445;DHT22;21562;49.476;6.086;2023-04-25T02:44:57;10.60;99.90
35445;DHT22;21562;49.476;6.086;2023-04-25T02:47:23;10.30;99.90
35445;DHT22;21562;49.476;6.086;2023-04-25T02:49:49;10.30;99.90
35445;DHT22;21562;49.476;6.086;2023-04-25T02:52:14;10.30;99.90
35445;DHT22;21562;49.476;6.086;2023-04-25T02:54:40;10.40;99.90
35445;DHT22;21562;49.476;6.086;2023-04-25T02:57:06;10.70;99.90
35445;DHT22;21562;49.476;6.086;2023-04-25T02:59:32;10.90;99.90
35445;DHT22;21562;49.476;6.086;2023-04-25T03:01:58;10.90;99.90
35445;DHT22;21562;49.476;6.086;2023-04-25T03:04:23;11.00;99.90
35445;DHT22;21562;49.476;6.086;2023-04-25T03:06:50;11.10;99.90
35445;DHT22;21562;49.476;6.086;2023-04-25T03:09:16;11.20;99.90
35445;DHT22;21562;49.476;6.086;2023-04-25T03:11:42;11.20;99.90
35445;DHT22;21562;49.476;6.086;2023-04-25T03:14:07;10.90;99.90
35445;DHT22;21562;49.476;6.086;2023-04-25T03:16:33;10.60;99.90
35445;DHT22;21562;49.476;6.086;2023-04-25T03:18:59;10.50;99.90
35445;DHT22;21562;49.476;6.086;2023-04-25T03:21:25;10.70;99.90
35445;DHT22;21562;49.476;6.086;2023-04-25T03:23:51;10.90;99.90
35445;DHT22;21562;49.476;6.086;2023-04-25T03:26:17;11.00;99.90
35445;DHT22;21562;49.476;6.086;2023-04-25T03:28:43;11.20;99.90
35445;DHT22;21562;49.476;6.086;2023-04-25T03:31:08;11.40;99.90
35445;DHT22;21562;49.476;6.086;2023-04-25T03:33:34;11.50;99.90
35445;DHT22;21562;49.476;6.086;2023-04-25T03:35:59;11.70;99.90
35445;DHT22;21562;49.476;6.086;2023-04-25T03:38:25;11.80;99.90
35445;DHT22;21562;49.476;6.086;2023-04-25T03:40:51;11.80;99.90
35445;DHT22;21562;49.476;6.086;2023-04-25T03:43:17;11.80;99.90
35445;DHT22;21562;49.476;6.086;2023-04-25T03:45:43;11.80;99.90
35445;DHT22;21562;49.476;6.086;2023-04-25T03:48:08;11.60;99.90
35445;DHT22;21562;49.476;6.086;2023-04-25T03:50:34;11.30;99.90
35445;DHT22;21562;49.476;6.086;2023-04-25T03:53:00;11.30;99.90
35445;DHT22;21562;49.476;6.086;2023-04-25T03:55:25;10.70;99.90
35445;DHT22;21562;49.476;6.086;2023-04-25T03:57:51;10.40;99.90
35445;DHT22;21562;49.476;6.086;2023-04-25T04:00:17;10.20;99.90
35445;DHT22;21562;49.476;6.086;2023-04-25T04:02:42;10.40;99.90
35445;DHT22;21562;49.476;6.086;2023-04-25T04:05:08;10.60;99.90
35445;DHT22;21562;49.476;6.086;2023-04-25T04:07:34;10.40;99.90
35445;DHT22;21562;49.476;6.086;2023-04-25T04:10:06;9.90;99.90
35445;DHT22;21562;49.476;6.086;2023-04-25T04:12:32;9.80;99.90
35445;DHT22;21562;49.476;6.086;2023-04-25T04:14:57;9.30;99.90
35445;DHT22;21562;49.476;6.086;2023-04-25T04:17:23;9.20;99.90
35445;DHT22;21562;49.476;6.086;2023-04-25T04:19:48;9.30;99.90
35445;DHT22;21562;49.476;6.086;2023-04-25T04:22:14;9.40;99.90
35445;DHT22;21562;49.476;6.086;2023-04-25T04:24:41;9.30;99.90
35445;DHT22;21562;49.476;6.086;2023-04-25T04:27:09;9.30;99.90
35445;DHT22;21562;49.476;6.086;2023-04-25T04:29:35;9.50;99.90
35445;DHT22;21562;49.476;6.086;2023-04-25T04:32:02;9.40;99.90
35445;DHT22;21562;49.476;6.086;2023-04-25T04:34:28;9.70;99.90
35445;DHT22;21562;49.476;6.086;2023-04-25T04:36:54;9.90;99.90
35445;DHT22;21562;49.476;6.086;2023-04-25T04:39:20;9.90;99.90
35445;DHT22;21562;49.476;6.086;2023-04-25T04:41:46;9.70;99.90
35445;DHT22;21562;49.476;6.086;2023-04-25T04:44:12;9.80;99.90
35445;DHT22;21562;49.476;6.086;2023-04-25T04:46:37;9.80;99.90
35445;DHT22;21562;49.476;6.086;2023-04-25T04:49:11;9.80;99.90
35445;DHT22;21562;49.476;6.086;2023-04-25T04:51:37;9.40;99.90
35445;DHT22;21562;49.476;6.086;2023-04-25T04:54:03;9.40;99.90
35445;DHT22;21562;49.476;6.086;2023-04-25T04:56:30;9.30;99.90
35445;DHT22;21562;49.476;6.086;2023-04-25T04:58:59;9.40;99.90
35445;DHT22;21562;49.476;6.086;2023-04-25T05:01:25;9.70;99.90
35445;DHT22;21562;49.476;6.086;2023-04-25T05:03:51;9.70;99.90
35445;DHT22;21562;49.476;6.086;2023-04-25T05:06:18;9.70;99.90
35445;DHT22;21562;49.476;6.086;2023-04-25T05:08:44;9.70;99.90
35445;DHT22;21562;49.476;6.086;2023-04-25T05:11:10;9.60;99.90
35445;DHT22;21562;49.476;6.086;2023-04-25T05:13:36;9.50;99.90
35445;DHT22;21562;49.476;6.086;2023-04-25T05:16:02;9.20;99.90
35445;DHT22;21562;49.476;6.086;2023-04-25T05:18:27;9.20;99.90
35445;DHT22;21562;49.476;6.086;2023-04-25T05:20:53;9.30;99.90
35445;DHT22;21562;49.476;6.086;2023-04-25T05:23:19;9.30;99.90
35445;DHT22;21562;49.476;6.086;2023-04-25T05:25:45;9.00;99.90
35445;DHT22;21562;49.476;6.086;2023-04-25T05:28:13;8.80;99.90
35445;DHT22;21562;49.476;6.086;2023-04-25T05:30:39;8.80;99.90
35445;DHT22;21562;49.476;6.086;2023-04-25T05:33:05;8.90;99.90
35445;DHT22;21562;49.476;6.086;2023-04-25T05:35:30;9.00;99.90
35445;DHT22;21562;49.476;6.086;2023-04-25T05:37:56;8.70;99.90
35445;DHT22;21562;49.476;6.086;2023-04-25T05:40:22;8.90;99.90
35445;DHT22;21562;49.476;6.086;2023-04-25T05:42:47;8.80;99.90
35445;DHT22;21562;49.476;6.086;2023-04-25T05:45:13;8.90;99.90
35445;DHT22;21562;49.476;6.086;2023-04-25T05:47:38;8.90;99.90
35445;DHT22;21562;49.476;6.086;2023-04-25T05:50:05;8.60;99.90
35445;DHT22;21562;49.476;6.086;2023-04-25T05:52:31;8.70;99.90
35445;DHT22;21562;49.476;6.086;2023-04-25T05:54:56;8.80;99.90
35445;DHT22;21562;49.476;6.086;2023-04-25T05:57:23;8.80;99.90
35445;DHT22;21562;49.476;6.086;2023-04-25T05:59:49;8.80;99.90
35445;DHT22;21562;49.476;6.086;2023-04-25T06:02:15;9.00;99.90
35445;DHT22;21562;49.476;6.086;2023-04-25T06:04:41;9.10;99.90
35445;DHT22;21562;49.476;6.086;2023-04-25T06:07:07;9.20;99.90
35445;DHT22;21562;49.476;6.086;2023-04-25T06:09:32;9.20;99.90
35445;DHT22;21562;49.476;6.086;2023-04-25T06:11:58;9.30;99.90
35445;DHT22;21562;49.476;6.086;2023-04-25T06:14:23;9.10;99.90
35445;DHT22;21562;49.476;6.086;2023-04-25T06:16:49;9.20;99.90
35445;DHT22;21562;49.476;6.086;2023-04-25T06:19:15;9.40;99.90
35445;DHT22;21562;49.476;6.086;2023-04-25T06:21:42;9.50;99.90
35445;DHT22;21562;49.476;6.086;2023-04-25T06:24:08;9.30;99.90
35445;DHT22;21562;49.476;6.086;2023-04-25T06:26:34;9.10;99.90
35445;DHT22;21562;49.476;6.086;2023-04-25T06:28:59;9.20;99.90
35445;DHT22;21562;49.476;6.086;2023-04-25T06:31:25;9.40;99.90
35445;DHT22;21562;49.476;6.086;2023-04-25T06:33:51;9.50;99.90
35445;DHT22;21562;49.476;6.086;2023-04-25T06:36:22;9.40;99.90
35445;DHT22;21562;49.476;6.086;2023-04-25T06:38:53;9.40;99.90
35445;DHT22;21562;49.476;6.086;2023-04-25T06:41:20;9.50;99.90
35445;DHT22;21562;49.476;6.086;2023-04-25T06:43:46;9.70;99.90
35445;DHT22;21562;49.476;6.086;2023-04-25T06:46:11;9.80;99.90
35445;DHT22;21562;49.476;6.086;2023-04-25T06:48:37;9.90;99.90
35445;DHT22;21562;49.476;6.086;2023-04-25T06:51:03;9.80;99.90
35445;DHT22;21562;49.476;6.086;2023-04-25T06:53:28;9.50;99.90
35445;DHT22;21562;49.476;6.086;2023-04-25T06:55:54;9.20;99.90
35445;DHT22;21562;49.476;6.086;2023-04-25T06:58:20;9.30;99.90
35445;DHT22;21562;49.476;6.086;2023-04-25T07:00:45;9.50;99.90
35445;DHT22;21562;49.476;6.086;2023-04-25T07:03:11;9.40;99.90
35445;DHT22;21562;49.476;6.086;2023-04-25T07:05:37;9.70;99.90
35445;DHT22;21562;49.476;6.086;2023-04-25T07:08:02;10.00;99.90
35445;DHT22;21562;49.476;6.086;2023-04-25T07:10:28;10.20;99.90
35445;DHT22;21562;49.476;6.086;2023-04-25T07:12:54;10.00;99.90
35445;DHT22;21562;49.476;6.086;2023-04-25T07:15:19;10.10;99.90
35445;DHT22;21562;49.476;6.086;2023-04-25T07:17:45;10.00;99.90
35445;DHT22;21562;49.476;6.086;2023-04-25T07:20:11;10.20;99.90
35445;DHT22;21562;49.476;6.086;2023-04-25T07:22:37;9.70;99.90
35445;DHT22;21562;49.476;6.086;2023-04-25T07:25:02;9.60;99.90
35445;DHT22;21562;49.476;6.086;2023-04-25T07:27:29;9.70;99.90
35445;DHT22;21562;49.476;6.086;2023-04-25T07:29:55;9.90;99.90
35445;DHT22;21562;49.476;6.086;2023-04-25T07:32:21;9.90;99.90
35445;DHT22;21562;49.476;6.086;2023-04-25T07:34:46;10.10;99.90
35445;DHT22;21562;49.476;6.086;2023-04-25T07:37:12;10.00;99.90
35445;DHT22;21562;49.476;6.086;2023-04-25T07:39:39;10.10;99.90
35445;DHT22;21562;49.476;6.086;2023-04-25T07:42:05;10.20;99.90
35445;DHT22;21562;49.476;6.086;2023-04-25T07:44:33;10.30;99.90
35445;DHT22;21562;49.476;6.086;2023-04-25T07:47:06;10.40;99.90
35445;DHT22;21562;49.476;6.086;2023-04-25T07:49:36;10.50;99.90
35445;DHT22;21562;49.476;6.086;2023-04-25T07:52:03;10.80;99.90
35445;DHT22;21562;49.476;6.086;2023-04-25T07:54:28;10.80;99.90
35445;DHT22;21562;49.476;6.086;2023-04-25T07:56:55;10.80;99.90
35445;DHT22;21562;49.476;6.086;2023-04-25T07:59:21;11.00;99.90
35445;DHT22;21562;49.476;6.086;2023-04-25T08:01:47;11.00;99.90
35445;DHT22;21562;49.476;6.086;2023-04-25T08:04:13;10.70;99.90
35445;DHT22;21562;49.476;6.086;2023-04-25T08:06:38;10.90;99.90
35445;DHT22;21562;49.476;6.086;2023-04-25T08:09:04;11.00;99.90
35445;DHT22;21562;49.476;6.086;2023-04-25T08:11:30;11.20;99.90
35445;DHT22;21562;49.476;6.086;2023-04-25T08:13:55;11.10;99.90
35445;DHT22;21562;49.476;6.086;2023-04-25T08:16:21;11.30;99.90
35445;DHT22;21562;49.476;6.086;2023-04-25T08:18:47;11.30;99.90
35445;DHT22;21562;49.476;6.086;2023-04-25T08:21:14;11.20;99.90
35445;DHT22;21562;49.476;6.086;2023-04-25T08:23:40;11.40;99.90
35445;DHT22;21562;49.476;6.086;2023-04-25T08:26:06;11.50;99.90
35445;DHT22;21562;49.476;6.086;2023-04-25T08:28:32;11.50;99.90
35445;DHT22;21562;49.476;6.086;2023-04-25T08:30:58;11.50;99.90
35445;DHT22;21562;49.476;6.086;2023-04-25T08:33:23;11.20;99.90
35445;DHT22;21562;49.476;6.086;2023-04-25T08:35:49;11.20;99.90
35445;DHT22;21562;49.476;6.086;2023-04-25T08:38:15;11.20;99.90
35445;DHT22;21562;49.476;6.086;2023-04-25T08:40:41;11.00;99.90
35445;DHT22;21562;49.476;6.086;2023-04-25T08:43:08;10.90;99.90
35445;DHT22;21562;49.476;6.086;2023-04-25T08:45:41;11.10;99.90
35445;DHT22;21562;49.476;6.086;2023-04-25T08:48:12;11.20;99.90
35445;DHT22;21562;49.476;6.086;2023-04-25T08:50:58;11.30;99.90
35445;DHT22;21562;49.476;6.086;2023-04-25T08:53:31;11.40;99.90
35445;DHT22;21562;49.476;6.086;2023-04-25T08:56:00;11.00;99.90
35445;DHT22;21562;49.476;6.086;2023-04-25T08:58:28;10.80;99.90
35445;DHT22;21562;49.476;6.086;2023-04-25T09:00:54;10.60;99.90
35445;DHT22;21562;49.476;6.086;2023-04-25T09:03:20;10.60;99.90
35445;DHT22;21562;49.476;6.086;2023-04-25T09:05:46;10.40;99.90
35445;DHT22;21562;49.476;6.086;2023-04-25T09:08:11;9.90;99.90
35445;DHT22;21562;49.476;6.086;2023-04-25T09:10:38;9.90;99.90
35445;DHT22;21562;49.476;6.086;2023-04-25T09:13:11;10.20;99.90
35445;DHT22;21562;49.476;6.086;2023-04-25T09:15:48;10.40;99.90
35445;DHT22;21562;49.476;6.086;2023-04-25T09:18:25;10.20;99.90
35445;DHT22;21562;49.476;6.086;2023-04-25T09:20:56;10.20;99.90
35445;DHT22;21562;49.476;6.086;2023-04-25T09:23:22;10.20;99.90
35445;DHT22;21562;49.476;6.086;2023-04-25T09:25:50;10.40;99.90
35445;DHT22;21562;49.476;6.086;2023-04-25T09:28:16;10.60;99.90
35445;DHT22;21562;49.476;6.086;2023-04-25T09:30:48;10.70;99.90
35445;DHT22;21562;49.476;6.086;2023-04-25T09:33:13;10.80;99.90
35445;DHT22;21562;49.476;6.086;2023-04-25T09:35:43;10.60;99.90
35445;DHT22;21562;49.476;6.086;2023-04-25T09:38:12;10.30;99.90
35445;DHT22;21562;49.476;6.086;2023-04-25T09:40:45;10.40;99.90
35445;DHT22;21562;49.476;6.086;2023-04-25T09:43:25;10.20;99.90
35445;DHT22;21562;49.476;6.086;2023-04-25T09:45:54;10.50;99.90
35445;DHT22;21562;49.476;6.086;2023-04-25T09:48:26;10.60;99.90
35445;DHT22;21562;49.476;6.086;2023-04-25T09:51:13;10.80;99.90
35445;DHT22;21562;49.476;6.086;2023-04-25T09:53:41;10.60;99.90
35445;DHT22;21562;49.476;6.086;2023-04-25T09:56:11;10.70;99.90
35445;DHT22;21562;49.476;6.086;2023-04-25T09:58:39;10.80;99.90
35445;DHT22;21562;49.476;6.086;2023-04-25T10:01:07;11.00;99.90
35445;DHT22;21562;49.476;6.086;2023-04-25T10:03:38;10.70;99.90
35445;DHT22;21562;49.476;6.086;2023-04-25T10:06:09;11.00;99.90
35445;DHT22;21562;49.476;6.086;2023-04-25T10:08:37;11.30;99.90
35445;DHT22;21562;49.476;6.086;2023-04-25T10:11:05;11.50;99.90
35445;DHT22;21562;49.476;6.086;2023-04-25T10:13:32;11.60;99.90
35445;DHT22;21562;49.476;6.086;2023-04-25T10:16:00;11.70;99.90
35445;DHT22;21562;49.476;6.086;2023-04-25T10:18:27;11.60;99.90
35445;DHT22;21562;49.476;6.086;2023-04-25T10:20:58;11.50;99.90
35445;DHT22;21562;49.476;6.086;2023-04-25T10:23:25;11.70;99.90
35445;DHT22;21562;49.476;6.086;2023-04-25T10:25:52;11.70;99.90
35445;DHT22;21562;49.476;6.086;2023-04-25T10:28:18;11.60;99.90
35445;DHT22;21562;49.476;6.086;2023-04-25T10:31:20;11.60;99.90
35445;DHT22;21562;49.476;6.086;2023-04-25T10:33:45;11.60;99.90
35445;DHT22;21562;49.476;6.086;2023-04-25T10:36:13;11.70;99.90
35445;DHT22;21562;49.476;6.086;2023-04-25T10:38:40;11.70;99.90
35445;DHT22;21562;49.476;6.086;2023-04-25T10:41:07;11.50;99.90
35445;DHT22;21562;49.476;6.086;2023-04-25T10:46:12;11.70;99.90
35445;DHT22;21562;49.476;6.086;2023-04-25T10:48:51;11.90;99.90
35445;DHT22;21562;49.476;6.086;2023-04-25T10:51:17;12.20;99.90
35445;DHT22;21562;49.476;6.086;2023-04-25T10:53:56;12.30;99.90
35445;DHT22;21562;49.476;6.086;2023-04-25T10:56:24;12.50;99.90
35445;DHT22;21562;49.476;6.086;2023-04-25T10:58:50;12.20;99.90
35445;DHT22;21562;49.476;6.086;2023-04-25T11:01:20;11.50;99.90
35445;DHT22;21562;49.476;6.086;2023-04-25T11:03:46;11.50;99.90
35445;DHT22;21562;49.476;6.086;2023-04-25T11:06:23;11.20;99.90
35445;DHT22;21562;49.476;6.086;2023-04-25T11:08:50;11.00;99.90
35445;DHT22;21562;49.476;6.086;2023-04-25T11:11:17;10.90;99.90
35445;DHT22;21562;49.476;6.086;2023-04-25T11:13:43;11.40;99.90
35445;DHT22;21562;49.476;6.086;2023-04-25T11:16:09;11.60;99.90
35445;DHT22;21562;49.476;6.086;2023-04-25T11:18:34;11.90;99.90
35445;DHT22;21562;49.476;6.086;2023-04-25T11:21:00;12.30;99.90
35445;DHT22;21562;49.476;6.086;2023-04-25T11:23:30;12.20;99.90
35445;DHT22;21562;49.476;6.086;2023-04-25T11:25:56;11.60;99.90
35445;DHT22;21562;49.476;6.086;2023-04-25T11:28:22;11.90;99.90
35445;DHT22;21562;49.476;6.086;2023-04-25T11:30:51;12.20;99.90
35445;DHT22;21562;49.476;6.086;2023-04-25T11:33:17;12.20;99.90
35445;DHT22;21562;49.476;6.086;2023-04-25T11:35:43;12.20;99.90
35445;DHT22;21562;49.476;6.086;2023-04-25T11:38:09;12.40;99.90
35445;DHT22;21562;49.476;6.086;2023-04-25T11:40:36;12.40;99.90
35445;DHT22;21562;49.476;6.086;2023-04-25T11:43:01;12.00;99.90
35445;DHT22;21562;49.476;6.086;2023-04-25T11:45:27;11.90;99.90
35445;DHT22;21562;49.476;6.086;2023-04-25T11:47:54;11.80;99.90
35445;DHT22;21562;49.476;6.086;2023-04-25T11:50:20;12.20;99.90
35445;DHT22;21562;49.476;6.086;2023-04-25T11:52:46;12.60;99.90
35445;DHT22;21562;49.476;6.086;2023-04-25T11:55:17;12.50;99.90
35445;DHT22;21562;49.476;6.086;2023-04-25T11:57:45;12.60;99.90
35445;DHT22;21562;49.476;6.086;2023-04-25T12:00:13;12.30;99.90
35445;DHT22;21562;49.476;6.086;2023-04-25T12:02:41;11.90;99.90
35445;DHT22;21562;49.476;6.086;2023-04-25T12:05:08;12.10;99.90
35445;DHT22;21562;49.476;6.086;2023-04-25T12:07:34;12.60;99.90
35445;DHT22;21562;49.476;6.086;2023-04-25T12:10:05;12.20;99.90
35445;DHT22;21562;49.476;6.086;2023-04-25T12:12:35;11.60;99.90
35445;DHT22;21562;49.476;6.086;2023-04-25T12:15:14;11.60;99.90
35445;DHT22;21562;49.476;6.086;2023-04-25T12:17:42;11.60;99.90
35445;DHT22;21562;49.476;6.086;2023-04-25T12:20:20;11.70;99.90
35445;DHT22;21562;49.476;6.086;2023-04-25T12:22:49;11.70;99.90
35445;DHT22;21562;49.476;6.086;2023-04-25T12:28:19;12.00;99.90
35445;DHT22;21562;49.476;6.086;2023-04-25T12:31:03;11.80;99.90
35445;DHT22;21562;49.476;6.086;2023-04-25T12:33:34;12.00;99.90
35445;DHT22;21562;49.476;6.086;2023-04-25T12:36:01;12.40;99.90
35445;DHT22;21562;49.476;6.086;2023-04-25T12:38:36;12.40;99.90
35445;DHT22;21562;49.476;6.086;2023-04-25T12:41:02;12.50;99.90
35445;DHT22;21562;49.476;6.086;2023-04-25T12:43:28;12.80;99.90
35445;DHT22;21562;49.476;6.086;2023-04-25T12:45:55;13.10;99.90
35445;DHT22;21562;49.476;6.086;2023-04-25T12:48:21;12.90;99.90
35445;DHT22;21562;49.476;6.086;2023-04-25T12:50:47;12.60;99.90
35445;DHT22;21562;49.476;6.086;2023-04-25T12:53:18;12.90;99.90
35445;DHT22;21562;49.476;6.086;2023-04-25T12:55:44;13.20;99.90
35445;DHT22;21562;49.476;6.086;2023-04-25T12:58:15;13.60;99.90
35445;DHT22;21562;49.476;6.086;2023-04-25T13:00:42;13.60;99.90
35445;DHT22;21562;49.476;6.086;2023-04-25T13:03:08;12.30;99.90
35445;DHT22;21562;49.476;6.086;2023-04-25T13:05:35;12.50;99.90
35445;DHT22;21562;49.476;6.086;2023-04-25T13:08:00;12.30;99.90
35445;DHT22;21562;49.476;6.086;2023-04-25T13:10:26;12.20;99.90
35445;DHT22;21562;49.476;6.086;2023-04-25T13:12:52;12.40;99.90
35445;DHT22;21562;49.476;6.086;2023-04-25T13:15:17;12.40;99.90
35445;DHT22;21562;49.476;6.086;2023-04-25T13:17:43;12.50;99.90
35445;DHT22;21562;49.476;6.086;2023-04-25T13:20:09;12.30;99.90
35445;DHT22;21562;49.476;6.086;2023-04-25T13:22:37;12.20;99.90
35445;DHT22;21562;49.476;6.086;2023-04-25T13:25:03;12.50;99.90
35445;DHT22;21562;49.476;6.086;2023-04-25T13:27:29;11.90;99.90
35445;DHT22;21562;49.476;6.086;2023-04-25T13:29:58;11.90;99.90
35445;DHT22;21562;49.476;6.086;2023-04-25T13:32:23;12.20;99.90
35445;DHT22;21562;49.476;6.086;2023-04-25T13:34:50;12.10;99.90
35445;DHT22;21562;49.476;6.086;2023-04-25T13:37:16;12.30;99.90
35445;DHT22;21562;49.476;6.086;2023-04-25T13:39:42;12.20;99.90
35445;DHT22;21562;49.476;6.086;2023-04-25T13:42:07;12.10;99.90
35445;DHT22;21562;49.476;6.086;2023-04-25T13:44:33;11.70;99.90
35445;DHT22;21562;49.476;6.086;2023-04-25T13:46:58;11.80;99.90
35445;DHT22;21562;49.476;6.086;2023-04-25T13:49:26;11.90;99.90
35445;DHT22;21562;49.476;6.086;2023-04-25T13:51:52;12.20;99.90
35445;DHT22;21562;49.476;6.086;2023-04-25T13:54:17;12.20;99.90
35445;DHT22;21562;49.476;6.086;2023-04-25T13:56:43;12.40;99.90
35445;DHT22;21562;49.476;6.086;2023-04-25T13:59:08;12.50;99.90
35445;DHT22;21562;49.476;6.086;2023-04-25T14:01:34;12.20;99.90
35445;DHT22;21562;49.476;6.086;2023-04-25T14:04:01;12.30;99.90
35445;DHT22;21562;49.476;6.086;2023-04-25T14:06:27;12.50;99.90
35445;DHT22;21562;49.476;6.086;2023-04-25T14:08:53;12.40;99.90
35445;DHT22;21562;49.476;6.086;2023-04-25T14:11:19;12.20;99.90
35445;DHT22;21562;49.476;6.086;2023-04-25T14:13:45;12.50;99.90
35445;DHT22;21562;49.476;6.086;2023-04-25T14:16:11;12.10;99.90
35445;DHT22;21562;49.476;6.086;2023-04-25T14:18:37;12.50;99.90
35445;DHT22;21562;49.476;6.086;2023-04-25T14:21:02;12.60;99.90
35445;DHT22;21562;49.476;6.086;2023-04-25T14:23:28;12.80;99.90
35445;DHT22;21562;49.476;6.086;2023-04-25T14:25:54;12.70;99.90
35445;DHT22;21562;49.476;6.086;2023-04-25T14:28:20;13.00;99.90
35445;DHT22;21562;49.476;6.086;2023-04-25T14:30:46;13.00;99.90
35445;DHT22;21562;49.476;6.086;2023-04-25T14:33:11;12.50;99.90
35445;DHT22;21562;49.476;6.086;2023-04-25T14:35:38;12.70;99.90
35445;DHT22;21562;49.476;6.086;2023-04-25T14:38:04;12.90;99.90
35445;DHT22;21562;49.476;6.086;2023-04-25T14:40:30;12.80;99.90
35445;DHT22;21562;49.476;6.086;2023-04-25T14:42:56;13.10;99.90
35445;DHT22;21562;49.476;6.086;2023-04-25T14:45:21;12.90;99.90
35445;DHT22;21562;49.476;6.086;2023-04-25T14:47:47;12.00;99.90
35445;DHT22;21562;49.476;6.086;2023-04-25T14:50:13;11.90;99.90
35445;DHT22;21562;49.476;6.086;2023-04-25T14:52:38;12.20;99.90
35445;DHT22;21562;49.476;6.086;2023-04-25T14:55:04;12.50;99.90
35445;DHT22;21562;49.476;6.086;2023-04-25T14:57:31;12.60;99.90
35445;DHT22;21562;49.476;6.086;2023-04-25T14:59:57;12.70;99.90
35445;DHT22;21562;49.476;6.086;2023-04-25T15:02:24;12.20;99.90
35445;DHT22;21562;49.476;6.086;2023-04-25T15:04:49;12.10;99.90
35445;DHT22;21562;49.476;6.086;2023-04-25T15:07:15;11.60;99.90
35445;DHT22;21562;49.476;6.086;2023-04-25T15:09:41;11.80;99.90
35445;DHT22;21562;49.476;6.086;2023-04-25T15:12:07;12.10;99.90
35445;DHT22;21562;49.476;6.086;2023-04-25T15:14:33;11.80;99.90
35445;DHT22;21562;49.476;6.086;2023-04-25T15:16:59;11.90;99.90
35445;DHT22;21562;49.476;6.086;2023-04-25T15:19:25;11.90;99.90
35445;DHT22;21562;49.476;6.086;2023-04-25T15:21:51;12.00;99.90
35445;DHT22;21562;49.476;6.086;2023-04-25T15:24:17;11.90;99.90
35445;DHT22;21562;49.476;6.086;2023-04-25T15:26:43;12.00;99.90
35445;DHT22;21562;49.476;6.086;2023-04-25T15:29:10;11.60;99.90
35445;DHT22;21562;49.476;6.086;2023-04-25T15:31:37;11.40;99.90
35445;DHT22;21562;49.476;6.086;2023-04-25T15:34:02;11.90;99.90
35445;DHT22;21562;49.476;6.086;2023-04-25T15:36:28;12.20;99.90
35445;DHT22;21562;49.476;6.086;2023-04-25T15:38:54;12.10;99.90